Time;durP1;ratioP1;P1;durP2;ratioP2;P2;SDS_P1;SDS_P2;PMS_P1;PMS_P2;Temp;Humidity;BMP_temperature;BMP_pressure;BME280_temperature;BME280_humidity;BME280_pressure;Samples;Min_cycle;Max_cycle;Signal;HPM_P1;HPM_P2
2021/09/30 00:02:13;;;;;;;;;;;;;;;4.14;58.01;96286.94;4988041;28;19929;-64
2021/09/30 00:04:39;;;;;;;;;;;;;;;4.25;57.86;96287.91;4987599;28;20311;-63
2021/09/30 00:07:07;;;;;;;;;;;;;;;4.44;57.45;96288.13;4986711;28;20635;-63
2021/09/30 00:09:33;;;;;;;;;;;;;;;4.55;56.38;96292.50;4970544;28;19922;-63
2021/09/30 00:12:05;;;;;;;;;;;;;;;4.98;54.84;96287.34;4977513;28;19928;-63
2021/09/30 00:41:44;;;;;;;;;;;;;;;5.36;53.68;96308.94;4972015;28;19924;-64
2021/09/30 00:49:47;;;;;;;;;;;;;;;4.70;55.39;96308.06;4970602;28;20413;-64
2021/09/30 01:33:49;;;;;;;;;;;;;;;5.71;52.01;96336.81;4972882;28;20175;-63
2021/09/30 03:00:16;;;;;;;;;;;;;;;4.55;54.66;96376.06;4969371;28;19921;-63
2021/09/30 03:02:43;;;;;;;;;;;;;;;4.71;54.69;96367.78;4982717;28;19918;-62
2021/09/30 03:05:09;;;;;;;;;;;;;;;4.94;52.86;96378.28;4982883;28;20294;-62
2021/09/30 03:07:35;;;;;;;;;;;;;;;4.84;53.70;96381.66;4987202;28;19918;-63
2021/09/30 03:10:01;;;;;;;;;;;;;;;4.84;53.17;96384.28;4978049;28;19910;-63
2021/09/30 03:12:30;;;;;;;;;;;;;;;4.69;53.83;96377.59;4980205;28;20556;-63
2021/09/30 03:17:43;;;;;;;;;;;;;;;4.77;54.24;96382.28;4977258;28;19925;-63
2021/09/30 03:20:29;;;;;;;;;;;;;;;4.53;54.07;96381.44;4962620;28;19976;-63
2021/09/30 03:23:02;;;;;;;;;;;;;;;4.97;53.20;96386.78;4962786;28;19918;-64
2021/09/30 03:25:27;;;;;;;;;;;;;;;4.66;52.98;96389.25;4951547;28;19934;-64
2021/09/30 03:27:53;;;;;;;;;;;;;;;4.76;54.10;96386.72;4962514;28;20406;-64
2021/09/30 03:30:18;;;;;;;;;;;;;;;4.84;54.05;96394.03;4962569;28;19918;-65
2021/09/30 03:32:43;;;;;;;;;;;;;;;4.69;54.50;96391.63;4963235;28;19914;-65
2021/09/30 03:35:09;;;;;;;;;;;;;;;5.09;52.50;96392.06;4962809;28;19925;-62
2021/09/30 03:37:34;;;;;;;;;;;;;;;5.09;52.61;96398.19;4963072;28;20096;-62
2021/09/30 03:39:59;;;;;;;;;;;;;;;5.19;52.06;96398.28;4977913;28;20346;-63
2021/09/30 03:42:25;;;;;;;;;;;;;;;5.16;52.69;96393.25;4962186;28;19926;-63
2021/09/30 03:44:50;;;;;;;;;;;;;;;5.16;52.47;96395.91;4962987;28;20458;-63
2021/09/30 03:47:18;;;;;;;;;;;;;;;5.21;52.44;96393.72;4962478;28;19953;-63
2021/09/30 03:49:45;;;;;;;;;;;;;;;5.26;52.49;96385.44;4950669;28;19914;-63
2021/09/30 03:59:08;;;;;;;;;;;;;;;5.34;51.89;96392.72;4962752;28;20409;-63
2021/09/30 04:00:36;;;;;;;;;;;;;;;5.37;51.82;96394.28;4948269;28;20063;-63
2021/09/30 04:03:01;;;;;;;;;;;;;;;5.50;51.27;96396.75;4962645;28;19918;-63
2021/09/30 04:05:27;;;;;;;;;;;;;;;5.33;51.32;96397.16;4962384;28;19925;-64
2021/09/30 04:07:52;;;;;;;;;;;;;;;5.29;52.24;96398.38;4962233;28;19914;-64
2021/09/30 04:10:17;;;;;;;;;;;;;;;5.38;51.37;96402.09;4961579;28;20391;-64
2021/09/30 04:12:42;;;;;;;;;;;;;;;5.34;51.49;96405.94;4961866;28;19976;-64
2021/09/30 04:15:08;;;;;;;;;;;;;;;5.21;52.24;96409.56;4960940;28;20019;-64
2021/09/30 04:17:33;;;;;;;;;;;;;;;5.28;52.37;96417.84;4961504;28;19944;-64
2021/09/30 04:19:58;;;;;;;;;;;;;;;5.27;51.86;96415.31;4962012;28;19917;-64
2021/09/30 04:22:24;;;;;;;;;;;;;;;4.92;53.45;96419.78;4961712;28;20273;-64
2021/09/30 04:24:49;;;;;;;;;;;;;;;5.26;52.50;96413.63;4962423;28;19911;-64
2021/09/30 04:27:14;;;;;;;;;;;;;;;5.52;52.29;96410.66;4962070;28;20232;-64
2021/09/30 04:29:40;;;;;;;;;;;;;;;5.58;51.18;96423.38;4961489;28;19918;-64
2021/09/30 04:32:05;;;;;;;;;;;;;;;5.66;51.66;96418.28;4962228;28;20602;-64
2021/09/30 04:34:30;;;;;;;;;;;;;;;5.64;51.26;96425.50;4961543;28;20316;-65
2021/09/30 04:36:55;;;;;;;;;;;;;;;5.72;51.07;96422.22;4962571;28;19910;-64
2021/09/30 04:39:21;;;;;;;;;;;;;;;5.60;51.03;96424.06;4961831;28;20297;-64
2021/09/30 04:41:46;;;;;;;;;;;;;;;5.55;50.81;96434.19;4962525;28;19973;-65
2021/09/30 04:44:12;;;;;;;;;;;;;;;4.93;53.08;96429.41;4961503;28;20147;-65
2021/09/30 04:46:37;;;;;;;;;;;;;;;4.92;53.11;96422.44;4962072;28;19996;-65
2021/09/30 04:49:02;;;;;;;;;;;;;;;4.71;53.65;96426.66;4962160;28;19910;-65
2021/09/30 04:51:27;;;;;;;;;;;;;;;4.54;54.06;96429.78;4961930;28;19950;-64
2021/09/30 04:53:52;;;;;;;;;;;;;;;4.29;55.01;96429.06;4962072;28;19914;-64
2021/09/30 04:56:18;;;;;;;;;;;;;;;4.06;54.65;96429.00;4962053;28;20379;-64
2021/09/30 04:58:43;;;;;;;;;;;;;;;4.00;54.86;96432.97;4959982;28;19953;-64
2021/09/30 05:01:08;;;;;;;;;;;;;;;4.18;55.02;96435.13;4950765;28;20183;-65
2021/09/30 05:03:34;;;;;;;;;;;;;;;4.06;55.51;96437.75;4960657;28;19918;-65
2021/09/30 05:05:59;;;;;;;;;;;;;;;3.99;55.58;96439.19;4962011;28;19914;-65
2021/09/30 05:08:25;;;;;;;;;;;;;;;4.00;55.28;96443.50;4960532;28;19914;-65
2021/09/30 05:10:51;;;;;;;;;;;;;;;4.16;54.77;96444.97;4962846;28;19918;-65
2021/09/30 05:13:25;;;;;;;;;;;;;;;3.98;55.06;96444.56;4964190;28;19988;-65
2021/09/30 05:15:50;;;;;;;;;;;;;;;3.46;57.08;96444.84;4964758;28;19922;-65
2021/09/30 05:18:15;;;;;;;;;;;;;;;4.12;55.21;96440.88;4964122;28;20156;-65
2021/09/30 05:20:41;;;;;;;;;;;;;;;4.44;54.81;96454.22;4965609;28;19972;-65
2021/09/30 05:23:06;;;;;;;;;;;;;;;4.10;55.62;96458.59;4964176;28;20012;-65
2021/09/30 05:25:31;;;;;;;;;;;;;;;4.31;54.46;96456.97;4965288;28;19914;-65
2021/09/30 05:27:57;;;;;;;;;;;;;;;4.29;54.76;96455.41;4963835;28;19964;-65
2021/09/30 05:30:22;;;;;;;;;;;;;;;4.23;54.33;96455.88;4964929;28;19925;-65
2021/09/30 05:32:47;;;;;;;;;;;;;;;4.22;55.06;96464.75;4964373;28;19949;-65
2021/09/30 05:35:13;;;;;;;;;;;;;;;4.30;54.64;96454.44;4964954;28;19914;-65
2021/09/30 05:37:38;;;;;;;;;;;;;;;4.12;54.49;96460.16;4963690;28;19921;-65
2021/09/30 05:40:04;;;;;;;;;;;;;;;3.61;56.27;96462.16;4953211;28;20442;-65
2021/09/30 05:42:29;;;;;;;;;;;;;;;3.85;55.70;96455.19;4963880;28;20412;-65
2021/09/30 05:44:54;;;;;;;;;;;;;;;4.09;55.45;96454.28;4957854;28;19914;-65
2021/09/30 05:47:20;;;;;;;;;;;;;;;3.93;55.34;96453.66;4959262;28;19940;-65
2021/09/30 05:49:45;;;;;;;;;;;;;;;3.94;55.59;96463.25;4964573;28;19977;-65
2021/09/30 05:52:10;;;;;;;;;;;;;;;3.59;56.17;96456.19;4963995;28;19925;-65
2021/09/30 05:54:35;;;;;;;;;;;;;;;3.65;56.08;96466.25;4964322;28;19926;-65
2021/09/30 05:57:01;;;;;;;;;;;;;;;3.93;54.77;96463.34;4964078;28;19913;-65
2021/09/30 05:59:26;;;;;;;;;;;;;;;4.34;54.71;96461.16;4948497;28;19926;-65
2021/09/30 06:14:50;;;;;;;;;;;;;;;3.90;55.94;96474.97;4959688;28;20449;-62
2021/09/30 06:17:15;;;;;;;;;;;;;;;3.64;56.21;96469.81;4960066;28;19934;-64
2021/09/30 06:19:41;;;;;;;;;;;;;;;4.13;55.42;96477.66;4959935;28;20003;-63
2021/09/30 06:22:07;;;;;;;;;;;;;;;4.11;55.19;96469.03;4959263;28;19949;-64
2021/09/30 06:24:32;;;;;;;;;;;;;;;4.22;55.20;96477.94;4960021;28;19917;-63
2021/09/30 06:26:58;;;;;;;;;;;;;;;3.67;57.49;96484.56;4975332;28;19924;-63
2021/09/30 06:29:23;;;;;;;;;;;;;;;3.76;56.67;96483.91;4960423;28;20331;-63
2021/09/30 06:31:48;;;;;;;;;;;;;;;3.88;56.93;96476.84;4960421;28;19953;-71
2021/09/30 06:34:14;;;;;;;;;;;;;;;4.22;54.92;96489.28;4959932;28;19918;-71
2021/09/30 06:36:39;;;;;;;;;;;;;;;4.30;54.85;96486.09;4958392;28;20339;-71
2021/09/30 06:39:04;;;;;;;;;;;;;;;4.38;54.44;96481.06;4939552;28;20025;-73
2021/09/30 06:41:29;;;;;;;;;;;;;;;4.86;53.46;96495.00;4975787;28;19918;-73
2021/09/30 06:43:55;;;;;;;;;;;;;;;4.57;54.41;96490.19;4959211;28;20020;-65
2021/09/30 06:46:20;;;;;;;;;;;;;;;4.76;54.35;96486.13;4959800;28;19918;-65
2021/09/30 06:48:45;;;;;;;;;;;;;;;4.24;54.97;96505.84;4959818;28;19914;-65
2021/09/30 06:51:10;;;;;;;;;;;;;;;4.33;55.66;96491.94;4959660;28;19994;-65
2021/09/30 06:53:36;;;;;;;;;;;;;;;3.00;59.17;96499.84;4959514;28;20621;-65
2021/09/30 06:56:07;;;;;;;;;;;;;;;3.76;57.70;96501.50;4959168;28;19917;-65
2021/09/30 06:58:35;;;;;;;;;;;;;;;3.92;57.64;96488.84;4972874;28;19913;-65
2021/09/30 07:01:00;;;;;;;;;;;;;;;4.52;55.05;96487.91;4947363;28;20313;-65
2021/09/30 07:03:26;;;;;;;;;;;;;;;5.24;53.51;96485.06;4958497;28;19985;-65
2021/09/30 07:05:52;;;;;;;;;;;;;;;4.80;53.83;96493.69;4949837;28;20332;-65
2021/09/30 07:08:17;;;;;;;;;;;;;;;5.15;53.67;96497.19;4973799;28;19924;-66
2021/09/30 07:10:42;;;;;;;;;;;;;;;5.44;52.51;96494.00;4957727;28;19994;-66
2021/09/30 07:13:08;;;;;;;;;;;;;;;5.27;53.07;96484.78;4946267;28;19995;-66
2021/09/30 07:15:33;;;;;;;;;;;;;;;5.88;51.53;96490.47;4957970;28;20053;-66
2021/09/30 07:17:58;;;;;;;;;;;;;;;5.92;51.14;96491.91;4957664;28;20013;-66
2021/09/30 07:20:24;;;;;;;;;;;;;;;6.17;50.82;96492.53;4958671;28;19986;-66
2021/09/30 07:22:49;;;;;;;;;;;;;;;5.01;53.07;96500.88;4958638;28;20052;-67
2021/09/30 07:25:14;;;;;;;;;;;;;;;5.91;51.41;96498.16;4957328;28;20344;-66
2021/09/30 07:27:39;;;;;;;;;;;;;;;5.83;50.95;96501.47;4958043;28;19918;-66
2021/09/30 07:30:05;;;;;;;;;;;;;;;3.89;57.35;96510.19;4958348;28;20336;-66
2021/09/30 07:32:30;;;;;;;;;;;;;;;5.89;52.11;96493.97;4958720;28;19918;-67
2021/09/30 07:34:55;;;;;;;;;;;;;;;5.84;51.71;96503.13;4957977;28;19941;-66
2021/09/30 07:37:21;;;;;;;;;;;;;;;5.64;52.98;96507.38;4958830;28;20057;-66
2021/09/30 07:39:46;;;;;;;;;;;;;;;6.15;50.67;96514.78;4957869;28;19918;-66
2021/09/30 07:42:11;;;;;;;;;;;;;;;5.48;51.67;96511.28;4958359;28;20021;-67
2021/09/30 07:44:37;;;;;;;;;;;;;;;4.94;53.88;96515.53;4957722;28;19997;-67
2021/09/30 07:47:02;;;;;;;;;;;;;;;5.88;52.47;96508.16;4956462;28;19997;-67
2021/09/30 07:49:28;;;;;;;;;;;;;;;6.36;50.60;96509.50;4959661;28;19930;-67
2021/09/30 07:51:53;;;;;;;;;;;;;;;6.70;51.91;96505.81;4959317;28;20308;-67
2021/09/30 07:54:18;;;;;;;;;;;;;;;6.66;49.38;96509.69;4959682;28;19914;-67
2021/09/30 07:56:43;;;;;;;;;;;;;;;6.90;48.86;96514.66;4959915;28;20363;-64
2021/09/30 07:59:09;;;;;;;;;;;;;;;5.98;51.66;96525.78;4954732;28;20391;-66
2021/09/30 08:01:34;;;;;;;;;;;;;;;6.03;52.64;96528.03;4956199;28;20029;-65
2021/09/30 08:04:00;;;;;;;;;;;;;;;6.08;50.77;96522.34;4958977;28;19990;-65
2021/09/30 08:06:25;;;;;;;;;;;;;;;5.84;51.86;96536.63;4960130;28;20403;-65
2021/09/30 08:08:51;;;;;;;;;;;;;;;5.96;51.82;96534.81;4958383;28;19969;-65
2021/09/30 08:11:16;;;;;;;;;;;;;;;5.56;53.13;96537.09;4959249;28;19995;-65
2021/09/30 08:13:41;;;;;;;;;;;;;;;6.16;51.37;96533.16;4947864;28;19970;-65
2021/09/30 08:16:07;;;;;;;;;;;;;;;6.06;52.05;96543.63;4958299;28;20378;-65
2021/09/30 08:18:32;;;;;;;;;;;;;;;6.36;50.61;96531.47;4957047;28;20274;-65
2021/09/30 08:20:58;;;;;;;;;;;;;;;6.62;50.79;96536.41;4959028;28;19990;-65
2021/09/30 08:23:24;;;;;;;;;;;;;;;6.27;50.77;96529.63;4959751;28;19940;-66
2021/09/30 08:25:49;;;;;;;;;;;;;;;6.73;50.03;96530.19;4949742;28;20167;-66
2021/09/30 08:28:15;;;;;;;;;;;;;;;6.08;50.81;96535.56;4959562;28;19921;-66
2021/09/30 08:30:40;;;;;;;;;;;;;;;6.06;50.26;96538.34;4960134;28;20719;-66
2021/09/30 08:33:09;;;;;;;;;;;;;;;5.17;53.36;96526.94;4957936;28;19915;-67
2021/09/30 08:35:35;;;;;;;;;;;;;;;6.53;51.62;96529.25;4959410;28;19918;-67
2021/09/30 08:38:00;;;;;;;;;;;;;;;7.00;49.71;96528.78;4962493;28;19922;-67
2021/09/30 08:40:25;;;;;;;;;;;;;;;6.83;48.71;96526.78;4963728;28;19961;-74
2021/09/30 08:42:51;;;;;;;;;;;;;;;7.05;48.22;96538.16;4962576;28;19922;-74
2021/09/30 08:45:19;;;;;;;;;;;;;;;7.06;47.71;96530.06;4955236;28;19970;-75
2021/09/30 08:47:45;;;;;;;;;;;;;;;7.75;46.47;96530.25;4968768;28;19914;-76
2021/09/30 08:50:10;;;;;;;;;;;;;;;7.35;47.41;96528.50;4969331;28;20425;-76
2021/09/30 08:52:39;;;;;;;;;;;;;;;7.26;47.29;96541.59;4970122;28;20468;-75
2021/09/30 08:55:04;;;;;;;;;;;;;;;7.36;47.99;96533.66;4970090;28;20527;-74
2021/09/30 08:57:31;;;;;;;;;;;;;;;7.46;47.76;96538.16;4958695;28;19917;-75
2021/09/30 09:00:15;;;;;;;;;;;;;;;8.19;45.65;96537.00;4965697;28;19966;-75
2021/09/30 09:02:44;;;;;;;;;;;;;;;8.42;44.59;96521.63;4958815;28;20528;-75
2021/09/30 09:05:09;;;;;;;;;;;;;;;7.77;45.77;96533.66;4974779;28;20257;-74
2021/09/30 09:07:35;;;;;;;;;;;;;;;8.85;45.45;96525.72;4970492;28;19925;-75
2021/09/30 09:10:01;;;;;;;;;;;;;;;8.95;45.58;96531.88;4984830;28;19917;-75
2021/09/30 09:12:31;;;;;;;;;;;;;;;8.88;44.16;96541.38;4984722;28;20628;-67
2021/09/30 09:14:56;;;;;;;;;;;;;;;9.46;43.43;96542.97;4969286;28;19914;-67
2021/09/30 09:17:21;;;;;;;;;;;;;;;9.45;43.95;96546.59;4969590;28;20581;-67
2021/09/30 09:19:53;;;;;;;;;;;;;;;9.66;43.22;96539.38;4968923;28;19936;-67
2021/09/30 09:22:20;;;;;;;;;;;;;;;9.22;43.08;96542.66;4970102;28;20091;-65
2021/09/30 09:25:04;;;;;;;;;;;;;;;9.58;43.89;96548.06;5003854;28;19921;-66
2021/09/30 09:27:42;;;;;;;;;;;;;;;9.26;43.29;96546.72;4980124;28;20299;-73
2021/09/30 09:30:24;;;;;;;;;;;;;;;9.44;44.52;96536.13;4986698;28;20008;-69
2021/09/30 09:33:21;;;;;;;;;;;;;;;9.10;42.04;96536.69;4989454;28;19988;-66
2021/09/30 09:35:55;;;;;;;;;;;;;;;8.63;43.71;96555.13;4981387;28;19957;-75
2021/09/30 09:38:21;;;;;;;;;;;;;;;8.69;43.36;96543.94;4969995;28;19914;-75
2021/09/30 09:40:46;;;;;;;;;;;;;;;8.59;42.99;96528.97;4967476;28;20016;-75
2021/09/30 09:43:27;;;;;;;;;;;;;;;9.06;42.76;96533.50;4969076;28;20025;-75
2021/09/30 09:45:52;;;;;;;;;;;;;;;8.53;42.51;96541.00;4972958;28;19914;-75
2021/09/30 09:48:18;;;;;;;;;;;;;;;8.59;42.36;96535.16;4969858;28;19925;-75
2021/09/30 09:50:43;;;;;;;;;;;;;;;9.53;41.51;96529.09;4969287;28;19953;-75
2021/09/30 09:53:08;;;;;;;;;;;;;;;9.25;40.68;96535.22;4978467;28;20399;-75
2021/09/30 09:55:37;;;;;;;;;;;;;;;8.90;42.68;96537.59;4965080;28;19918;-75
2021/09/30 09:58:07;;;;;;;;;;;;;;;8.68;42.38;96542.25;4975034;28;20629;-76
2021/09/30 10:00:36;;;;;;;;;;;;;;;6.86;46.03;96542.38;4950824;28;19914;-76
2021/09/30 10:03:10;;;;;;;;;;;;;;;8.83;43.36;96547.09;4981645;28;19950;-76
2021/09/30 10:05:36;;;;;;;;;;;;;;;8.84;42.40;96538.16;4966482;28;19966;-75
2021/09/30 10:08:02;;;;;;;;;;;;;;;8.62;40.96;96542.81;4966351;28;19922;-75
2021/09/30 10:10:27;;;;;;;;;;;;;;;8.86;40.12;96530.03;4964277;28;20360;-75
2021/09/30 10:12:53;;;;;;;;;;;;;;;9.03;39.92;96536.44;4981593;28;19912;-75
2021/09/30 10:15:18;;;;;;;;;;;;;;;8.62;42.25;96532.22;4977147;28;20580;-74
2021/09/30 10:17:43;;;;;;;;;;;;;;;8.74;40.18;96527.56;4957774;28;19922;-75
2021/09/30 10:20:08;;;;;;;;;;;;;;;9.63;39.39;96521.06;4964358;28;19968;-75
2021/09/30 10:22:34;;;;;;;;;;;;;;;9.51;39.94;96536.34;4964780;28;20375;-66
2021/09/30 10:24:59;;;;;;;;;;;;;;;9.96;36.30;96524.03;4967073;28;19906;-67
2021/09/30 10:27:24;;;;;;;;;;;;;;;8.53;38.38;96525.09;4966890;28;19995;-66
2021/09/30 10:29:49;;;;;;;;;;;;;;;8.96;39.97;96512.28;4966948;28;19968;-74
2021/09/30 10:32:19;;;;;;;;;;;;;;;8.36;38.78;96516.88;4977488;28;19914;-67
2021/09/30 10:34:47;;;;;;;;;;;;;;;8.41;38.16;96517.31;4967846;28;19918;-69
2021/09/30 10:37:18;;;;;;;;;;;;;;;9.17;40.09;96508.56;4962363;28;20308;-74
2021/09/30 10:39:47;;;;;;;;;;;;;;;10.09;36.37;96503.25;4965836;28;19941;-77
2021/09/30 10:42:33;;;;;;;;;;;;;;;10.44;37.21;96508.66;4968769;28;20395;-75
2021/09/30 10:45:18;;;;;;;;;;;;;;;10.77;33.01;96504.56;4948169;28;19915;-76
2021/09/30 10:47:43;;;;;;;;;;;;;;;9.98;36.75;96501.63;4974222;28;19922;-76
2021/09/30 10:50:09;;;;;;;;;;;;;;;11.18;34.81;96502.13;4985435;28;20445;-76
2021/09/30 10:52:35;;;;;;;;;;;;;;;10.30;34.10;96499.41;4952918;28;20014;-75
2021/09/30 10:55:10;;;;;;;;;;;;;;;10.59;34.02;96502.78;4969424;28;19918;-75
2021/09/30 10:57:36;;;;;;;;;;;;;;;10.39;34.70;96497.66;4985104;28;20355;-75
2021/09/30 11:00:06;;;;;;;;;;;;;;;10.06;36.06;96508.00;4969827;28;20009;-76
2021/09/30 11:02:43;;;;;;;;;;;;;;;9.76;37.11;96516.19;4947168;28;19929;-74
2021/09/30 11:05:08;;;;;;;;;;;;;;;9.84;36.62;96499.50;4977154;28;19954;-75
2021/09/30 11:07:34;;;;;;;;;;;;;;;10.49;34.41;96495.75;4973593;28;19918;-76
2021/09/30 11:10:22;;;;;;;;;;;;;;;10.71;35.02;96503.38;4961562;28;19965;-76
2021/09/30 11:13:06;;;;;;;;;;;;;;;11.46;34.59;96501.88;4983604;28;20650;-74
2021/09/30 11:15:50;;;;;;;;;;;;;;;9.22;38.27;96505.47;4979098;28;20406;-74
2021/09/30 11:18:36;;;;;;;;;;;;;;;10.60;35.97;96513.28;4979703;28;20387;-74
2021/09/30 11:21:02;;;;;;;;;;;;;;;10.83;35.21;96504.75;4998090;28;20315;-75
2021/09/30 11:23:46;;;;;;;;;;;;;;;10.64;35.13;96504.97;4973527;28;19918;-74
2021/09/30 11:26:11;;;;;;;;;;;;;;;11.12;34.09;96508.09;4964428;28;19945;-74
2021/09/30 11:28:36;;;;;;;;;;;;;;;10.29;36.86;96507.53;4957551;28;20015;-74
2021/09/30 11:31:21;;;;;;;;;;;;;;;9.92;38.23;96514.69;4969097;28;19941;-75
2021/09/30 11:33:46;;;;;;;;;;;;;;;9.62;38.70;96508.75;4965226;28;19961;-75
2021/09/30 11:36:12;;;;;;;;;;;;;;;9.23;38.20;96513.31;4968754;28;20427;-75
2021/09/30 11:38:38;;;;;;;;;;;;;;;7.93;41.18;96508.41;4976185;28;19918;-75
2021/09/30 11:41:03;;;;;;;;;;;;;;;8.34;40.77;96492.31;4947326;28;19910;-75
2021/09/30 11:43:28;;;;;;;;;;;;;;;9.92;37.00;96485.41;4977563;28;20037;-76
2021/09/30 11:45:53;;;;;;;;;;;;;;;9.42;37.60;96485.75;4962909;28;19917;-75
2021/09/30 11:48:19;;;;;;;;;;;;;;;9.85;35.73;96504.66;4963077;28;20456;-75
2021/09/30 11:50:46;;;;;;;;;;;;;;;8.99;36.02;96496.06;4963981;28;19922;-75
2021/09/30 11:53:11;;;;;;;;;;;;;;;9.11;37.35;96512.63;4971311;28;19982;-74
2021/09/30 11:55:43;;;;;;;;;;;;;;;9.57;35.90;96488.78;4974292;28;20288;-75
2021/09/30 11:58:09;;;;;;;;;;;;;;;9.72;37.94;96491.75;4970440;28;20130;-75
2021/09/30 12:00:34;;;;;;;;;;;;;;;9.45;37.07;96495.25;4964299;28;20088;-74
2021/09/30 12:03:00;;;;;;;;;;;;;;;10.45;36.45;96474.91;4967489;28;20466;-74
2021/09/30 12:05:29;;;;;;;;;;;;;;;10.13;37.16;96477.16;4980922;28;19981;-75
2021/09/30 12:07:54;;;;;;;;;;;;;;;10.26;36.23;96471.44;4981329;28;20387;-75
2021/09/30 12:10:19;;;;;;;;;;;;;;;10.71;35.27;96471.41;4981655;28;19948;-75
2021/09/30 12:12:46;;;;;;;;;;;;;;;10.45;36.11;96466.91;4966142;28;19982;-75
2021/09/30 12:15:30;;;;;;;;;;;;;;;10.49;35.95;96468.28;4988421;28;19933;-75
2021/09/30 12:17:55;;;;;;;;;;;;;;;10.18;36.57;96474.03;4964236;28;20446;-75
2021/09/30 12:20:21;;;;;;;;;;;;;;;9.94;37.54;96467.50;4976294;28;19917;-75
2021/09/30 12:22:47;;;;;;;;;;;;;;;10.36;37.26;96466.00;4959509;28;19932;-74
2021/09/30 12:25:13;;;;;;;;;;;;;;;10.15;36.49;96463.69;4978567;28;20457;-75
2021/09/30 12:27:40;;;;;;;;;;;;;;;9.84;37.52;96463.09;4956416;28;19917;-75
2021/09/30 12:30:24;;;;;;;;;;;;;;;10.20;37.12;96461.44;4978135;28;19913;-75
2021/09/30 12:32:51;;;;;;;;;;;;;;;10.59;37.22;96455.69;4981963;28;20050;-75
2021/09/30 12:35:18;;;;;;;;;;;;;;;11.09;34.75;96458.59;4968036;28;20375;-75
2021/09/30 12:37:48;;;;;;;;;;;;;;;10.66;34.84;96453.22;4952449;28;20020;-75
2021/09/30 12:40:17;;;;;;;;;;;;;;;10.62;34.53;96457.19;4980490;28;19917;-75
2021/09/30 12:43:02;;;;;;;;;;;;;;;12.23;32.19;96452.00;4977922;28;19925;-75
2021/09/30 12:45:28;;;;;;;;;;;;;;;10.82;34.84;96460.47;4963372;28;19941;-75
2021/09/30 12:48:01;;;;;;;;;;;;;;;11.60;33.71;96457.75;4987167;28;19960;-75
2021/09/30 12:50:32;;;;;;;;;;;;;;;11.40;34.03;96451.91;4981931;28;20422;-74
2021/09/30 12:53:01;;;;;;;;;;;;;;;11.29;34.16;96447.69;4981839;28;20161;-74
2021/09/30 12:55:27;;;;;;;;;;;;;;;11.20;35.09;96448.66;4982252;28;19914;-75
2021/09/30 12:57:52;;;;;;;;;;;;;;;11.10;35.82;96441.66;4981810;28;20418;-75
2021/09/30 13:00:18;;;;;;;;;;;;;;;10.55;36.43;96435.69;4982788;28;20378;-75
2021/09/30 13:02:47;;;;;;;;;;;;;;;11.68;33.62;96427.59;4981921;28;19986;-75
2021/09/30 13:05:13;;;;;;;;;;;;;;;11.67;33.28;96427.75;4998879;28;19976;-74
2021/09/30 13:07:57;;;;;;;;;;;;;;;10.93;35.02;96418.56;4981528;28;19982;-74
2021/09/30 13:10:34;;;;;;;;;;;;;;;11.38;34.71;96429.88;4982150;28;20032;-75
2021/09/30 13:13:13;;;;;;;;;;;;;;;12.37;32.94;96415.75;4981904;28;20044;-74
2021/09/30 13:15:44;;;;;;;;;;;;;;;12.14;32.61;96420.97;4981328;28;20537;-75
2021/09/30 13:18:11;;;;;;;;;;;;;;;12.16;31.73;96429.63;4981954;28;20001;-75
2021/09/30 13:20:36;;;;;;;;;;;;;;;12.20;32.10;96424.81;4980546;28;19964;-74
2021/09/30 13:23:01;;;;;;;;;;;;;;;11.51;33.68;96422.25;4981064;28;19922;-75
2021/09/30 13:25:27;;;;;;;;;;;;;;;12.02;34.25;96410.59;4983227;28;20016;-75
2021/09/30 13:27:52;;;;;;;;;;;;;;;12.90;31.08;96409.09;4981792;28;20342;-75
2021/09/30 13:30:18;;;;;;;;;;;;;;;12.94;32.58;96405.06;4981018;28;19979;-76
2021/09/30 13:32:43;;;;;;;;;;;;;;;10.65;36.08;96418.75;4983717;28;19976;-75
2021/09/30 13:35:09;;;;;;;;;;;;;;;11.30;34.07;96406.72;4986715;28;19913;-75
2021/09/30 13:37:34;;;;;;;;;;;;;;;11.97;33.28;96418.25;4985343;28;19916;-75
2021/09/30 13:40:00;;;;;;;;;;;;;;;12.09;33.34;96402.78;4985163;28;20379;-75
2021/09/30 13:42:26;;;;;;;;;;;;;;;12.76;32.05;96394.63;4985526;28;19924;-75
2021/09/30 13:44:51;;;;;;;;;;;;;;;11.98;33.31;96400.44;4986432;28;19957;-75
2021/09/30 13:47:16;;;;;;;;;;;;;;;12.86;35.08;96387.25;4986441;28;19964;-75
2021/09/30 13:49:42;;;;;;;;;;;;;;;13.48;31.17;96392.78;4985422;28;20175;-75
2021/09/30 13:52:07;;;;;;;;;;;;;;;13.00;31.64;96398.22;4984904;28;19918;-76
2021/09/30 13:54:32;;;;;;;;;;;;;;;12.89;31.74;96396.75;4984718;28;20000;-75
2021/09/30 13:56:58;;;;;;;;;;;;;;;11.10;34.31;96403.50;4985234;28;19925;-75
2021/09/30 13:59:23;;;;;;;;;;;;;;;11.59;33.53;96412.59;4985209;28;19928;-75
2021/09/30 14:01:48;;;;;;;;;;;;;;;11.05;36.34;96411.94;4986655;28;19933;-75
2021/09/30 14:04:13;;;;;;;;;;;;;;;12.28;33.30;96384.75;4985805;28;19969;-75
2021/09/30 14:06:39;;;;;;;;;;;;;;;12.98;31.09;96390.34;4984665;28;20415;-75
2021/09/30 14:09:04;;;;;;;;;;;;;;;11.15;33.83;96398.50;4984898;28;19976;-75
2021/09/30 14:11:29;;;;;;;;;;;;;;;11.69;33.36;96383.09;4984503;28;19986;-74
2021/09/30 14:13:55;;;;;;;;;;;;;;;12.15;32.76;96379.94;4986385;28;20048;-74
2021/09/30 14:16:20;;;;;;;;;;;;;;;10.84;35.01;96393.69;4984120;28;20394;-75
2021/09/30 14:18:46;;;;;;;;;;;;;;;11.88;34.17;96390.78;4983905;28;19972;-75
2021/09/30 14:21:11;;;;;;;;;;;;;;;11.48;35.06;96389.75;4985882;28;19910;-75
2021/09/30 14:23:36;;;;;;;;;;;;;;;12.12;33.48;96370.44;4984156;28;19924;-75
2021/09/30 14:26:02;;;;;;;;;;;;;;;12.38;33.43;96366.69;4985835;28;20496;-75
2021/09/30 14:28:27;;;;;;;;;;;;;;;12.26;33.64;96374.25;5000362;28;19965;-76
2021/09/30 14:30:55;;;;;;;;;;;;;;;12.10;34.19;96369.75;4996100;28;19914;-75
2021/09/30 14:33:21;;;;;;;;;;;;;;;11.74;34.38;96372.75;4966811;28;19914;-75
2021/09/30 14:35:46;;;;;;;;;;;;;;;11.79;34.67;96370.41;4966256;28;20402;-75
2021/09/30 14:38:12;;;;;;;;;;;;;;;11.80;34.94;96366.75;4981252;28;19918;-75
2021/09/30 14:40:37;;;;;;;;;;;;;;;11.81;35.29;96370.25;4965966;28;19917;-76
2021/09/30 14:43:02;;;;;;;;;;;;;;;12.36;34.28;96352.69;4965056;28;20363;-75
2021/09/30 14:45:27;;;;;;;;;;;;;;;12.01;34.84;96355.53;4969472;28;20017;-75
2021/09/30 14:47:53;;;;;;;;;;;;;;;11.21;35.61;96351.72;4964933;28;20295;-75
2021/09/30 14:50:18;;;;;;;;;;;;;;;10.00;38.54;96355.16;4964749;28;20065;-75
2021/09/30 14:52:43;;;;;;;;;;;;;;;11.77;35.84;96343.91;4964429;28;19918;-75
2021/09/30 14:55:08;;;;;;;;;;;;;;;12.29;34.95;96335.69;4964388;28;19990;-75
2021/09/30 14:57:34;;;;;;;;;;;;;;;12.32;34.49;96342.50;4965960;28;20037;-75
2021/09/30 14:59:59;;;;;;;;;;;;;;;11.94;33.83;96340.41;4964255;28;19999;-75
2021/09/30 15:02:24;;;;;;;;;;;;;;;10.65;37.24;96346.88;4965700;28;20019;-75
2021/09/30 15:04:49;;;;;;;;;;;;;;;10.52;37.09;96345.50;4966156;28;19970;-75
2021/09/30 15:07:20;;;;;;;;;;;;;;;11.60;34.89;96340.41;4965815;28;20233;-75
2021/09/30 15:09:45;;;;;;;;;;;;;;;12.25;33.82;96345.88;4965962;28;20299;-75
2021/09/30 15:12:10;;;;;;;;;;;;;;;12.52;32.44;96343.78;4965407;28;19922;-75
2021/09/30 15:14:36;;;;;;;;;;;;;;;10.87;34.69;96356.94;4965435;28;19918;-74
2021/09/30 15:17:11;;;;;;;;;;;;;;;12.37;33.57;96332.97;4965362;28;20398;-75
2021/09/30 15:19:51;;;;;;;;;;;;;;;12.49;33.53;96335.28;4987403;28;19917;-76
2021/09/30 15:22:16;;;;;;;;;;;;;;;12.04;33.64;96335.72;4983959;28;19925;-75
2021/09/30 15:24:41;;;;;;;;;;;;;;;13.01;31.99;96333.06;4984561;28;19913;-75
2021/09/30 15:27:07;;;;;;;;;;;;;;;12.70;33.00;96329.34;4984658;28;20055;-75
2021/09/30 15:29:32;;;;;;;;;;;;;;;10.95;35.25;96341.97;4998072;28;20061;-75
2021/09/30 15:31:58;;;;;;;;;;;;;;;12.85;32.33;96325.97;4982958;28;20048;-75
2021/09/30 15:34:23;;;;;;;;;;;;;;;12.83;32.96;96322.59;4982703;28;19962;-75
2021/09/30 15:36:48;;;;;;;;;;;;;;;12.98;33.14;96325.38;4984840;28;19962;-75
2021/09/30 15:39:13;;;;;;;;;;;;;;;13.37;31.86;96335.19;4982612;28;20475;-75
2021/09/30 15:41:39;;;;;;;;;;;;;;;13.31;32.50;96323.38;4984250;28;19986;-76
2021/09/30 15:44:04;;;;;;;;;;;;;;;13.50;31.95;96320.38;4968441;28;19925;-75
2021/09/30 15:46:30;;;;;;;;;;;;;;;15.20;29.41;96327.91;4964950;28;19913;-75
2021/09/30 15:48:55;;;;;;;;;;;;;;;15.53;28.93;96315.03;4963583;28;20442;-75
2021/09/30 15:51:20;;;;;;;;;;;;;;;15.20;28.93;96317.16;4964893;28;19914;-75
2021/09/30 15:53:45;;;;;;;;;;;;;;;14.69;29.63;96318.84;4964737;28;19921;-76